sensor_id;sensor_type;location;lat;lon;timestamp;temperature;humidity
53272;DHT22;39160;48.580;7.756;2024-01-07T00:03:18;7.80;99.90
53272;DHT22;39160;48.580;7.756;2024-01-07T00:08:08;7.80;99.90
53272;DHT22;39160;48.580;7.756;2024-01-07T00:12:59;7.80;99.90
53272;DHT22;39160;48.580;7.756;2024-01-07T00:17:50;7.80;99.90
53272;DHT22;39160;48.580;7.756;2024-01-07T00:22:41;7.80;99.90
53272;DHT22;39160;48.580;7.756;2024-01-07T00:27:32;7.80;99.90
53272;DHT22;39160;48.580;7.756;2024-01-07T00:32:22;7.80;99.90
53272;DHT22;39160;48.580;7.756;2024-01-07T00:37:13;7.80;99.90
53272;DHT22;39160;48.580;7.756;2024-01-07T00:42:04;7.80;99.90
53272;DHT22;39160;48.580;7.756;2024-01-07T00:46:54;7.80;99.90
53272;DHT22;39160;48.580;7.756;2024-01-07T00:51:45;7.80;99.90
53272;DHT22;39160;48.580;7.756;2024-01-07T00:56:36;7.70;99.90
53272;DHT22;39160;48.580;7.756;2024-01-07T01:01:26;7.70;99.90
53272;DHT22;39160;48.580;7.756;2024-01-07T01:06:17;7.60;99.90
53272;DHT22;39160;48.580;7.756;2024-01-07T01:11:10;7.60;99.90
53272;DHT22;39160;48.580;7.756;2024-01-07T01:16:01;7.60;99.90
53272;DHT22;39160;48.580;7.756;2024-01-07T01:20:52;7.70;99.90
53272;DHT22;39160;48.580;7.756;2024-01-07T01:25:43;7.60;99.90
53272;DHT22;39160;48.580;7.756;2024-01-07T01:30:33;7.60;99.90
53272;DHT22;39160;48.580;7.756;2024-01-07T01:35:24;7.50;99.90
53272;DHT22;39160;48.580;7.756;2024-01-07T01:40:17;7.50;99.90
53272;DHT22;39160;48.580;7.756;2024-01-07T01:45:08;7.50;99.90
53272;DHT22;39160;48.580;7.756;2024-01-07T01:49:58;7.50;99.90
53272;DHT22;39160;48.580;7.756;2024-01-07T01:54:49;7.50;99.90
53272;DHT22;39160;48.580;7.756;2024-01-07T01:59:40;7.40;99.90
53272;DHT22;39160;48.580;7.756;2024-01-07T02:04:32;7.50;99.90
53272;DHT22;39160;48.580;7.756;2024-01-07T02:09:23;7.50;99.90
53272;DHT22;39160;48.580;7.756;2024-01-07T02:14:14;7.50;99.90
53272;DHT22;39160;48.580;7.756;2024-01-07T02:19:05;7.50;99.90
53272;DHT22;39160;48.580;7.756;2024-01-07T02:23:56;7.50;99.90
53272;DHT22;39160;48.580;7.756;2024-01-07T02:28:47;7.50;99.90
53272;DHT22;39160;48.580;7.756;2024-01-07T02:33:37;7.50;99.90
53272;DHT22;39160;48.580;7.756;2024-01-07T02:38:28;7.40;99.90
53272;DHT22;39160;48.580;7.756;2024-01-07T02:43:19;7.40;99.90
53272;DHT22;39160;48.580;7.756;2024-01-07T02:48:09;7.40;99.90
53272;DHT22;39160;48.580;7.756;2024-01-07T02:53:00;7.50;99.90
53272;DHT22;39160;48.580;7.756;2024-01-07T02:57:51;7.40;99.90
53272;DHT22;39160;48.580;7.756;2024-01-07T03:02:41;7.30;99.90
53272;DHT22;39160;48.580;7.756;2024-01-07T03:07:32;7.30;99.90
53272;DHT22;39160;48.580;7.756;2024-01-07T03:12:22;7.30;99.90
53272;DHT22;39160;48.580;7.756;2024-01-07T03:17:13;7.30;99.90
53272;DHT22;39160;48.580;7.756;2024-01-07T03:22:06;7.20;99.90
53272;DHT22;39160;48.580;7.756;2024-01-07T03:26:57;7.20;99.90
53272;DHT22;39160;48.580;7.756;2024-01-07T03:31:48;7.10;99.90
53272;DHT22;39160;48.580;7.756;2024-01-07T03:36:38;7.00;99.90
53272;DHT22;39160;48.580;7.756;2024-01-07T03:41:29;7.00;99.90
53272;DHT22;39160;48.580;7.756;2024-01-07T03:46:20;7.10;99.90
53272;DHT22;39160;48.580;7.756;2024-01-07T03:51:11;7.10;99.90
53272;DHT22;39160;48.580;7.756;2024-01-07T03:56:01;7.20;99.90
53272;DHT22;39160;48.580;7.756;2024-01-07T04:00:52;7.20;99.90
53272;DHT22;39160;48.580;7.756;2024-01-07T04:05:44;7.20;99.90
53272;DHT22;39160;48.580;7.756;2024-01-07T04:10:37;7.20;99.90
53272;DHT22;39160;48.580;7.756;2024-01-07T04:15:28;7.10;99.90
53272;DHT22;39160;48.580;7.756;2024-01-07T04:20:18;7.10;99.90
53272;DHT22;39160;48.580;7.756;2024-01-07T04:25:09;7.10;99.90
53272;DHT22;39160;48.580;7.756;2024-01-07T04:30:01;7.10;99.90
53272;DHT22;39160;48.580;7.756;2024-01-07T04:34:52;7.10;99.90
53272;DHT22;39160;48.580;7.756;2024-01-07T04:39:43;7.10;99.90
53272;DHT22;39160;48.580;7.756;2024-01-07T04:44:34;7.00;99.90
53272;DHT22;39160;48.580;7.756;2024-01-07T04:49:24;7.10;99.90
53272;DHT22;39160;48.580;7.756;2024-01-07T04:54:15;7.00;99.90
53272;DHT22;39160;48.580;7.756;2024-01-07T04:59:05;7.10;99.90
53272;DHT22;39160;48.580;7.756;2024-01-07T05:03:56;7.20;99.90
53272;DHT22;39160;48.580;7.756;2024-01-07T05:08:47;7.20;99.90
53272;DHT22;39160;48.580;7.756;2024-01-07T05:13:37;7.10;99.90
53272;DHT22;39160;48.580;7.756;2024-01-07T05:18:28;7.10;99.90
53272;DHT22;39160;48.580;7.756;2024-01-07T05:23:19;7.10;99.90
53272;DHT22;39160;48.580;7.756;2024-01-07T05:28:10;7.10;99.90
53272;DHT22;39160;48.580;7.756;2024-01-07T05:33:00;7.10;99.90
53272;DHT22;39160;48.580;7.756;2024-01-07T05:37:51;7.20;99.90
53272;DHT22;39160;48.580;7.756;2024-01-07T05:42:42;7.20;99.90
53272;DHT22;39160;48.580;7.756;2024-01-07T05:47:32;7.20;99.90
53272;DHT22;39160;48.580;7.756;2024-01-07T05:52:23;7.20;99.90
53272;DHT22;39160;48.580;7.756;2024-01-07T05:57:14;7.10;99.90
53272;DHT22;39160;48.580;7.756;2024-01-07T06:02:05;7.10;99.90
53272;DHT22;39160;48.580;7.756;2024-01-07T06:06:55;7.10;99.90
53272;DHT22;39160;48.580;7.756;2024-01-07T06:11:46;7.00;99.90
53272;DHT22;39160;48.580;7.756;2024-01-07T06:16:37;7.00;99.90
53272;DHT22;39160;48.580;7.756;2024-01-07T06:21:27;7.00;99.90
53272;DHT22;39160;48.580;7.756;2024-01-07T06:26:18;7.00;99.90
53272;DHT22;39160;48.580;7.756;2024-01-07T06:31:09;7.00;99.90
53272;DHT22;39160;48.580;7.756;2024-01-07T06:36:00;6.90;99.90
53272;DHT22;39160;48.580;7.756;2024-01-07T06:40:51;6.90;99.90
53272;DHT22;39160;48.580;7.756;2024-01-07T06:45:42;6.80;99.90
53272;DHT22;39160;48.580;7.756;2024-01-07T06:50:34;6.80;99.90
53272;DHT22;39160;48.580;7.756;2024-01-07T06:55:24;6.90;99.90
53272;DHT22;39160;48.580;7.756;2024-01-07T07:00:15;6.80;99.90
53272;DHT22;39160;48.580;7.756;2024-01-07T07:05:06;6.80;99.90
53272;DHT22;39160;48.580;7.756;2024-01-07T07:09:57;6.80;99.90
53272;DHT22;39160;48.580;7.756;2024-01-07T07:14:48;6.90;99.90
53272;DHT22;39160;48.580;7.756;2024-01-07T07:19:39;6.90;99.90
53272;DHT22;39160;48.580;7.756;2024-01-07T07:24:30;6.90;99.90
53272;DHT22;39160;48.580;7.756;2024-01-07T07:29:21;6.90;99.90
53272;DHT22;39160;48.580;7.756;2024-01-07T07:34:12;7.00;99.90
53272;DHT22;39160;48.580;7.756;2024-01-07T07:39:02;7.00;99.90
53272;DHT22;39160;48.580;7.756;2024-01-07T07:43:53;6.90;99.90
53272;DHT22;39160;48.580;7.756;2024-01-07T07:48:44;7.00;99.90
53272;DHT22;39160;48.580;7.756;2024-01-07T07:53:38;7.00;99.90
53272;DHT22;39160;48.580;7.756;2024-01-07T07:58:29;7.00;99.90
53272;DHT22;39160;48.580;7.756;2024-01-07T08:03:20;7.00;99.90
53272;DHT22;39160;48.580;7.756;2024-01-07T08:08:10;7.00;99.90
53272;DHT22;39160;48.580;7.756;2024-01-07T08:13:01;7.00;99.90
53272;DHT22;39160;48.580;7.756;2024-01-07T08:17:52;7.00;99.90
53272;DHT22;39160;48.580;7.756;2024-01-07T08:22:42;6.90;99.90
53272;DHT22;39160;48.580;7.756;2024-01-07T08:27:33;7.00;99.90
53272;DHT22;39160;48.580;7.756;2024-01-07T08:32:25;6.90;99.90
53272;DHT22;39160;48.580;7.756;2024-01-07T08:37:15;6.90;99.90
53272;DHT22;39160;48.580;7.756;2024-01-07T08:42:06;6.90;99.90
53272;DHT22;39160;48.580;7.756;2024-01-07T08:46:57;6.90;99.90
53272;DHT22;39160;48.580;7.756;2024-01-07T08:51:48;6.80;99.90
53272;DHT22;39160;48.580;7.756;2024-01-07T08:56:38;6.80;99.90
53272;DHT22;39160;48.580;7.756;2024-01-07T09:01:30;6.70;99.90
53272;DHT22;39160;48.580;7.756;2024-01-07T09:06:21;6.80;99.90
53272;DHT22;39160;48.580;7.756;2024-01-07T09:11:11;6.90;99.90
53272;DHT22;39160;48.580;7.756;2024-01-07T09:16:03;6.80;99.90
53272;DHT22;39160;48.580;7.756;2024-01-07T09:20:54;6.80;99.90
53272;DHT22;39160;48.580;7.756;2024-01-07T09:25:44;6.80;99.90
53272;DHT22;39160;48.580;7.756;2024-01-07T09:30:36;6.80;99.90
53272;DHT22;39160;48.580;7.756;2024-01-07T09:35:27;6.80;99.90
53272;DHT22;39160;48.580;7.756;2024-01-07T09:40:18;6.80;99.90
53272;DHT22;39160;48.580;7.756;2024-01-07T09:45:13;6.80;99.90
53272;DHT22;39160;48.580;7.756;2024-01-07T09:50:03;6.70;99.90
53272;DHT22;39160;48.580;7.756;2024-01-07T09:54:59;6.80;99.90
53272;DHT22;39160;48.580;7.756;2024-01-07T09:59:50;6.80;99.90
53272;DHT22;39160;48.580;7.756;2024-01-07T10:04:41;6.80;99.90
53272;DHT22;39160;48.580;7.756;2024-01-07T10:09:33;6.70;99.90
53272;DHT22;39160;48.580;7.756;2024-01-07T10:14:24;6.70;99.90
53272;DHT22;39160;48.580;7.756;2024-01-07T10:19:23;6.80;99.90
53272;DHT22;39160;48.580;7.756;2024-01-07T10:24:14;6.80;99.90
53272;DHT22;39160;48.580;7.756;2024-01-07T10:29:06;6.90;99.90
53272;DHT22;39160;48.580;7.756;2024-01-07T10:33:57;6.90;99.90
53272;DHT22;39160;48.580;7.756;2024-01-07T10:38:48;6.80;99.90
53272;DHT22;39160;48.580;7.756;2024-01-07T10:43:39;6.90;99.90
53272;DHT22;39160;48.580;7.756;2024-01-07T10:48:36;6.80;99.90
53272;DHT22;39160;48.580;7.756;2024-01-07T10:53:33;6.90;99.90
53272;DHT22;39160;48.580;7.756;2024-01-07T10:58:27;6.80;99.90
53272;DHT22;39160;48.580;7.756;2024-01-07T11:03:41;6.80;99.90
53272;DHT22;39160;48.580;7.756;2024-01-07T11:13:42;6.80;99.90
53272;DHT22;39160;48.580;7.756;2024-01-07T11:18:33;6.70;99.90
53272;DHT22;39160;48.580;7.756;2024-01-07T11:23:29;6.70;99.90
53272;DHT22;39160;48.580;7.756;2024-01-07T11:33:42;6.60;99.90
53272;DHT22;39160;48.580;7.756;2024-01-07T11:38:34;6.50;99.90
53272;DHT22;39160;48.580;7.756;2024-01-07T11:43:26;6.50;99.90
53272;DHT22;39160;48.580;7.756;2024-01-07T11:48:16;6.50;99.90
53272;DHT22;39160;48.580;7.756;2024-01-07T11:53:07;6.60;99.90
53272;DHT22;39160;48.580;7.756;2024-01-07T11:58:01;6.60;99.90
53272;DHT22;39160;48.580;7.756;2024-01-07T12:02:52;6.70;99.90
53272;DHT22;39160;48.580;7.756;2024-01-07T12:07:43;6.80;99.90
53272;DHT22;39160;48.580;7.756;2024-01-07T12:12:34;6.80;99.90
53272;DHT22;39160;48.580;7.756;2024-01-07T12:17:24;6.70;99.90
53272;DHT22;39160;48.580;7.756;2024-01-07T12:22:17;6.60;99.90
53272;DHT22;39160;48.580;7.756;2024-01-07T12:27:08;6.50;99.90
53272;DHT22;39160;48.580;7.756;2024-01-07T12:31:59;6.70;99.90
53272;DHT22;39160;48.580;7.756;2024-01-07T12:36:50;6.60;99.90
53272;DHT22;39160;48.580;7.756;2024-01-07T12:41:42;6.50;99.90
53272;DHT22;39160;48.580;7.756;2024-01-07T12:46:32;6.50;99.90
53272;DHT22;39160;48.580;7.756;2024-01-07T12:51:23;6.50;99.90
53272;DHT22;39160;48.580;7.756;2024-01-07T12:56:14;6.40;99.90
53272;DHT22;39160;48.580;7.756;2024-01-07T13:01:04;6.30;99.90
53272;DHT22;39160;48.580;7.756;2024-01-07T13:05:55;6.40;99.90
53272;DHT22;39160;48.580;7.756;2024-01-07T13:10:46;6.40;99.90
53272;DHT22;39160;48.580;7.756;2024-01-07T13:15:36;6.30;99.90
53272;DHT22;39160;48.580;7.756;2024-01-07T13:20:27;6.40;99.90
53272;DHT22;39160;48.580;7.756;2024-01-07T13:25:18;6.40;99.90
53272;DHT22;39160;48.580;7.756;2024-01-07T13:30:09;6.30;99.90
53272;DHT22;39160;48.580;7.756;2024-01-07T13:35:00;6.20;99.90
53272;DHT22;39160;48.580;7.756;2024-01-07T13:39:50;6.30;99.90
53272;DHT22;39160;48.580;7.756;2024-01-07T13:44:41;6.20;99.90
53272;DHT22;39160;48.580;7.756;2024-01-07T13:49:36;6.20;99.90
53272;DHT22;39160;48.580;7.756;2024-01-07T13:54:28;6.30;99.90
53272;DHT22;39160;48.580;7.756;2024-01-07T13:59:18;6.30;99.90
53272;DHT22;39160;48.580;7.756;2024-01-07T14:04:09;6.10;99.90
53272;DHT22;39160;48.580;7.756;2024-01-07T14:09:00;6.10;99.90
53272;DHT22;39160;48.580;7.756;2024-01-07T14:13:50;6.10;99.90
53272;DHT22;39160;48.580;7.756;2024-01-07T14:18:41;6.20;99.90
53272;DHT22;39160;48.580;7.756;2024-01-07T14:23:33;6.20;99.90
53272;DHT22;39160;48.580;7.756;2024-01-07T14:28:24;6.10;99.90
53272;DHT22;39160;48.580;7.756;2024-01-07T14:33:16;6.20;99.90
53272;DHT22;39160;48.580;7.756;2024-01-07T14:38:06;6.00;99.90
53272;DHT22;39160;48.580;7.756;2024-01-07T14:42:57;6.00;99.90
53272;DHT22;39160;48.580;7.756;2024-01-07T14:47:48;6.10;99.90
53272;DHT22;39160;48.580;7.756;2024-01-07T14:52:39;6.00;99.90
53272;DHT22;39160;48.580;7.756;2024-01-07T14:57:30;6.00;99.90
53272;DHT22;39160;48.580;7.756;2024-01-07T15:02:20;6.00;99.90
53272;DHT22;39160;48.580;7.756;2024-01-07T15:07:11;5.90;99.90
53272;DHT22;39160;48.580;7.756;2024-01-07T15:12:02;5.90;99.90
53272;DHT22;39160;48.580;7.756;2024-01-07T15:16:52;5.80;99.90
53272;DHT22;39160;48.580;7.756;2024-01-07T15:21:44;5.80;99.90
53272;DHT22;39160;48.580;7.756;2024-01-07T15:26:35;5.70;99.90
53272;DHT22;39160;48.580;7.756;2024-01-07T15:31:26;5.70;99.90
53272;DHT22;39160;48.580;7.756;2024-01-07T15:36:17;5.70;99.90
53272;DHT22;39160;48.580;7.756;2024-01-07T15:41:07;5.70;99.90
53272;DHT22;39160;48.580;7.756;2024-01-07T15:45:59;5.60;99.90
53272;DHT22;39160;48.580;7.756;2024-01-07T15:50:49;5.60;99.90
53272;DHT22;39160;48.580;7.756;2024-01-07T15:55:40;5.70;99.90
53272;DHT22;39160;48.580;7.756;2024-01-07T16:00:31;5.60;99.90
53272;DHT22;39160;48.580;7.756;2024-01-07T16:05:22;5.60;99.90
53272;DHT22;39160;48.580;7.756;2024-01-07T16:10:12;5.50;99.90
53272;DHT22;39160;48.580;7.756;2024-01-07T16:15:03;5.50;99.90
53272;DHT22;39160;48.580;7.756;2024-01-07T16:19:54;5.50;99.90
53272;DHT22;39160;48.580;7.756;2024-01-07T16:24:45;5.50;99.90
53272;DHT22;39160;48.580;7.756;2024-01-07T16:29:36;5.40;99.90
53272;DHT22;39160;48.580;7.756;2024-01-07T16:34:27;5.50;99.90
53272;DHT22;39160;48.580;7.756;2024-01-07T16:39:18;5.40;99.90
53272;DHT22;39160;48.580;7.756;2024-01-07T16:44:09;5.40;99.90
53272;DHT22;39160;48.580;7.756;2024-01-07T16:48:59;5.40;99.90
53272;DHT22;39160;48.580;7.756;2024-01-07T16:53:50;5.30;99.90
53272;DHT22;39160;48.580;7.756;2024-01-07T16:58:41;5.30;99.90
53272;DHT22;39160;48.580;7.756;2024-01-07T17:03:31;5.20;99.90
53272;DHT22;39160;48.580;7.756;2024-01-07T17:08:22;5.20;99.90
53272;DHT22;39160;48.580;7.756;2024-01-07T17:13:13;5.30;99.90
53272;DHT22;39160;48.580;7.756;2024-01-07T17:18:04;5.20;99.90
53272;DHT22;39160;48.580;7.756;2024-01-07T17:22:55;5.10;99.90
53272;DHT22;39160;48.580;7.756;2024-01-07T17:27:45;5.10;99.90
53272;DHT22;39160;48.580;7.756;2024-01-07T17:32:36;5.10;99.90
53272;DHT22;39160;48.580;7.756;2024-01-07T17:37:27;5.10;99.90
53272;DHT22;39160;48.580;7.756;2024-01-07T17:42:17;5.00;99.90
53272;DHT22;39160;48.580;7.756;2024-01-07T17:47:08;4.90;99.90
53272;DHT22;39160;48.580;7.756;2024-01-07T17:51:59;4.90;99.90
53272;DHT22;39160;48.580;7.756;2024-01-07T17:56:52;4.90;99.90
53272;DHT22;39160;48.580;7.756;2024-01-07T18:01:46;4.80;99.90
53272;DHT22;39160;48.580;7.756;2024-01-07T18:06:37;4.50;99.90
53272;DHT22;39160;48.580;7.756;2024-01-07T18:11:28;4.30;99.90
53272;DHT22;39160;48.580;7.756;2024-01-07T18:16:19;4.30;99.90
53272;DHT22;39160;48.580;7.756;2024-01-07T18:21:13;4.20;99.90
53272;DHT22;39160;48.580;7.756;2024-01-07T18:26:04;4.30;99.90
53272;DHT22;39160;48.580;7.756;2024-01-07T18:30:54;4.30;99.90
53272;DHT22;39160;48.580;7.756;2024-01-07T18:35:45;4.30;99.90
53272;DHT22;39160;48.580;7.756;2024-01-07T18:40:36;4.20;99.90
53272;DHT22;39160;48.580;7.756;2024-01-07T18:45:27;4.10;99.90
53272;DHT22;39160;48.580;7.756;2024-01-07T18:50:19;4.10;99.90
53272;DHT22;39160;48.580;7.756;2024-01-07T18:55:10;4.10;99.90
53272;DHT22;39160;48.580;7.756;2024-01-07T19:00:02;4.00;99.90
53272;DHT22;39160;48.580;7.756;2024-01-07T19:04:54;3.90;99.90
53272;DHT22;39160;48.580;7.756;2024-01-07T19:09:46;3.90;99.90
53272;DHT22;39160;48.580;7.756;2024-01-07T19:14:36;3.90;99.90
53272;DHT22;39160;48.580;7.756;2024-01-07T19:19:27;3.90;99.90
53272;DHT22;39160;48.580;7.756;2024-01-07T19:24:17;3.90;99.90
53272;DHT22;39160;48.580;7.756;2024-01-07T19:29:08;3.80;99.90
53272;DHT22;39160;48.580;7.756;2024-01-07T19:33:59;3.70;99.90
53272;DHT22;39160;48.580;7.756;2024-01-07T19:38:49;3.80;99.90
53272;DHT22;39160;48.580;7.756;2024-01-07T19:43:40;3.70;99.90
53272;DHT22;39160;48.580;7.756;2024-01-07T19:48:31;3.50;99.90
53272;DHT22;39160;48.580;7.756;2024-01-07T19:53:21;3.60;99.90
53272;DHT22;39160;48.580;7.756;2024-01-07T19:58:12;3.60;99.90
53272;DHT22;39160;48.580;7.756;2024-01-07T20:03:06;3.50;99.90
53272;DHT22;39160;48.580;7.756;2024-01-07T20:07:57;3.40;99.90
53272;DHT22;39160;48.580;7.756;2024-01-07T20:12:47;3.30;99.90
53272;DHT22;39160;48.580;7.756;2024-01-07T20:17:38;3.30;99.90
53272;DHT22;39160;48.580;7.756;2024-01-07T20:22:29;3.20;99.90
53272;DHT22;39160;48.580;7.756;2024-01-07T20:27:20;3.20;99.90
53272;DHT22;39160;48.580;7.756;2024-01-07T20:32:11;3.30;99.90
53272;DHT22;39160;48.580;7.756;2024-01-07T20:37:01;3.30;99.90
53272;DHT22;39160;48.580;7.756;2024-01-07T20:41:52;3.20;99.90
53272;DHT22;39160;48.580;7.756;2024-01-07T20:46:43;3.20;99.90
53272;DHT22;39160;48.580;7.756;2024-01-07T20:51:34;3.10;99.90
53272;DHT22;39160;48.580;7.756;2024-01-07T20:56:24;3.00;99.90
53272;DHT22;39160;48.580;7.756;2024-01-07T21:01:15;3.00;99.90
53272;DHT22;39160;48.580;7.756;2024-01-07T21:06:06;3.20;99.90
53272;DHT22;39160;48.580;7.756;2024-01-07T21:10:57;3.10;99.90
53272;DHT22;39160;48.580;7.756;2024-01-07T21:15:47;3.10;99.90
53272;DHT22;39160;48.580;7.756;2024-01-07T21:20:38;3.00;99.90
53272;DHT22;39160;48.580;7.756;2024-01-07T21:25:29;2.80;99.90
53272;DHT22;39160;48.580;7.756;2024-01-07T21:30:20;2.70;99.90
53272;DHT22;39160;48.580;7.756;2024-01-07T21:35:11;2.70;99.90
53272;DHT22;39160;48.580;7.756;2024-01-07T21:40:03;2.80;99.90
53272;DHT22;39160;48.580;7.756;2024-01-07T21:44:55;2.80;99.90
53272;DHT22;39160;48.580;7.756;2024-01-07T21:49:47;2.80;99.90
53272;DHT22;39160;48.580;7.756;2024-01-07T21:54:38;2.80;99.90
53272;DHT22;39160;48.580;7.756;2024-01-07T21:59:29;2.70;99.90
53272;DHT22;39160;48.580;7.756;2024-01-07T22:04:20;2.60;99.90
53272;DHT22;39160;48.580;7.756;2024-01-07T22:09:10;2.70;99.90
53272;DHT22;39160;48.580;7.756;2024-01-07T22:14:01;2.70;99.90
53272;DHT22;39160;48.580;7.756;2024-01-07T22:18:52;2.60;99.90
53272;DHT22;39160;48.580;7.756;2024-01-07T22:23:42;2.60;99.90
53272;DHT22;39160;48.580;7.756;2024-01-07T22:28:33;2.60;99.90
53272;DHT22;39160;48.580;7.756;2024-01-07T22:33:24;2.70;99.90
53272;DHT22;39160;48.580;7.756;2024-01-07T22:38:14;2.60;99.90
53272;DHT22;39160;48.580;7.756;2024-01-07T22:43:05;2.50;99.90
53272;DHT22;39160;48.580;7.756;2024-01-07T22:47:55;2.40;99.90
53272;DHT22;39160;48.580;7.756;2024-01-07T22:52:46;2.40;99.90
53272;DHT22;39160;48.580;7.756;2024-01-07T22:57:37;2.40;99.90
53272;DHT22;39160;48.580;7.756;2024-01-07T23:02:28;2.50;99.90
53272;DHT22;39160;48.580;7.756;2024-01-07T23:07:20;2.50;99.90
53272;DHT22;39160;48.580;7.756;2024-01-07T23:12:10;2.40;99.90
53272;DHT22;39160;48.580;7.756;2024-01-07T23:17:01;2.40;99.90
53272;DHT22;39160;48.580;7.756;2024-01-07T23:21:52;2.30;99.90
53272;DHT22;39160;48.580;7.756;2024-01-07T23:26:42;2.30;99.90
53272;DHT22;39160;48.580;7.756;2024-01-07T23:31:33;2.30;99.90
53272;DHT22;39160;48.580;7.756;2024-01-07T23:36:24;2.30;99.90
53272;DHT22;39160;48.580;7.756;2024-01-07T23:41:15;2.50;99.90
53272;DHT22;39160;48.580;7.756;2024-01-07T23:46:05;2.40;99.90
53272;DHT22;39160;48.580;7.756;2024-01-07T23:50:56;2.40;99.90
53272;DHT22;39160;48.580;7.756;2024-01-07T23:55:47;2.30;99.90
